Search for airport 
image banner adimage banner ad
image banner ad

VAMA - Mundra

Located in , India

ICAO - , IATA -

Data provided by Airmate  

General information

Coordinates: N22°50'7" E69°45'54"
Elevation is 17 feet MSL.
 
Rated:
View ratings: [VIEW]


View others Airports in Gujarat

Operational data

Open for public use
Current time UTC:
Current local time:
Weather at : VAKE - Kandla ( 46 km )
TAF: TAF VAKE 200800Z 2009/2018 03004KT 6000 FEW020 SCT025 BECMG 2016/2018 18006KT
View NOTAMs / SUP AIP / TFR affecting this airport [VIEW]
Communications frequencies: [VIEW]

Runways:

RWY identifierQFULength (ft)Width (ft)SurfaceLDA (ft)
0554°622798
23234°622798

Airport contact information

Address: India

Satellite view of VAMA